This demonstration page uses our WeatherBlox Daily Observations layout. Learn more.

Left ArrowRight Arrow

38.88101, -77.10428

Hourly Observations for May 4, 2020

Temp ( °F °C ) Dew Point ( °F °C ) Humidity (%) Winds ( mph kmh ) Pressure ( in mb ) Visibility ( mi km ) Precip ( " mm )
12:16 am 00:16 Cloudy with Light Rain 65 18.3 63 17.2 93 93 SSW 6 9 29.72 1006 8 12.87472 0.05 1.27
12:52 am 00:52 Cloudy with Heavy Rain 63 17.2 62 16.7 97 97 S 7 11 29.72 1007 4 6.43736 0.14 3.556
1:52 am 01:52 Cloudy 63 17.2 62 16.7 97 97 Calm 29.7 1006 10 16.0934 0.12 3.048
2:52 am 02:52 Cloudy 63 17.2 62 16.7 97 97 S 6 9 29.68 1005 10 16.0934 0 0
3:52 am 03:52 Cloudy 63 17.2 62 16.7 97 97 SW 3 6 29.67 1005 10 16.0934 0.001 0.001
4:52 am 04:52 Cloudy 64 17.8 61 16.1 90 90 NW 3 6 29.68 1005 10 16.0934 0 0
5:52 am 05:52 Cloudy 65 18.3 58 14.4 78 78 WNW 13 20 29.71 1006 10 16.0934 0 0
6:52 am 06:52 Partly Cloudy 64 17.8 56 13.3 75 75 NW 14 22 29.75 1007 10 16.0934 0 0
7:52 am 07:52 Mostly Sunny 66 18.9 53 11.7 63 63 WNW 14 22 29.77 1008 10 16.0934 0 0
8:52 am 08:52 Partly Cloudy 67 19.4 48 8.9 51 51 NW 17 28 29.78 1009 10 16.0934 0 0
9:52 am 09:52 Partly Cloudy 70 21.1 41 5 35 35 WNW 18 30 29.8 1009 10 16.0934 0 0
10:52 am 10:52 Mostly Sunny 71 21.7 41 5 34 34 NW 18 30 29.8 1009 10 16.0934 0 0
11:52 am 11:52 Mostly Sunny 72 22.2 41 5 33 33 NW 16 26 29.8 1009 10 16.0934 0 0
12:52 pm 12:52 Partly Cloudy 73 22.8 39 3.9 29 29 NW 15 24 29.79 1009 10 16.0934 0 0
1:52 pm 13:52 Partly Cloudy 75 23.9 36 2.2 24 24 NW 29 46 29.78 1009 10 16.0934 0 0
2:52 pm 14:52 Sunny 74 23.3 37 2.8 26 26 WNW 26 43 29.8 1009 10 16.0934 0 0
3:52 pm 15:52 Mostly Sunny 72 22.2 39 3.9 30 30 NNW 25 41 29.8 1009 10 16.0934 0 0
4:52 pm 16:52 Mostly Sunny 72 22.2 38 3.3 29 29 NW 21 33 29.81 1010 10 16.0934 0 0
5:52 pm 17:52 Mostly Sunny 69 20.6 34 1.1 27 27 NW 24 39 29.85 1011 10 16.0934 0 0
6:52 pm 18:52 Partly Cloudy 67 19.4 33 0.6 28 28 NNW 24 39 29.89 1012 10 16.0934 0 0
7:52 pm 19:52 Partly Cloudy 64 17.8 33 0.6 32 32 NNW 20 31 29.92 1013 10 16.0934 0 0
8:52 pm 20:52 Partly Cloudy 62 16.7 35 1.7 37 37 NNW 13 20 29.96 1014 10 16.0934 0 0
9:52 pm 21:52 Partly Cloudy 59 15 36 2.2 42 42 NNW 7 11 29.97 1015 10 16.0934 0 0
10:52 pm 22:52 Mostly Cloudy 58 14.4 37 2.8 46 46 N 9 15 29.97 1015 10 16.0934 0 0
11:52 pm 23:52 Mostly Cloudy 56 13.3 37 2.8 49 49 N 14 22 29.96 1014 10 16.0934 0 0

Powered by AerisWeather